Time;durP1;ratioP1;P1;durP2;ratioP2;P2;SDS_P1;SDS_P2;PMS_P1;PMS_P2;Temp;Humidity;BMP_temperature;BMP_pressure;BME280_temperature;BME280_humidity;BME280_pressure;Samples;Min_cycle;Max_cycle;Signal;HPM_P1;HPM_P2
2022/10/20 00:01:28;;;;;;;17.75;11.60;;;14.50;99.90;;;;;;4070562;29;20196;-88
2022/10/20 00:03:29;;;;;;;22.60;12.18;;;14.50;99.90;;;;;;4086550;29;20207;-89
2022/10/20 00:05:30;;;;;;;19.42;12.55;;;14.50;99.90;;;;;;4070851;29;20177;-88
2022/10/20 00:07:31;;;;;;;27.08;12.82;;;14.40;99.90;;;;;;4086562;29;20668;-88
2022/10/20 00:09:31;;;;;;;24.02;12.65;;;14.40;99.90;;;;;;4070675;29;20212;-95
2022/10/20 00:11:32;;;;;;;31.35;13.48;;;14.30;99.90;;;;;;4070018;29;20291;-89
2022/10/20 00:13:33;;;;;;;22.95;12.95;;;14.10;99.90;;;;;;4086574;29;20184;-93
2022/10/20 00:15:34;;;;;;;26.17;13.23;;;14.10;99.90;;;;;;4070902;29;20176;-95
2022/10/20 00:17:34;;;;;;;23.02;12.93;;;14.10;99.90;;;;;;4086685;29;20222;-88
2022/10/20 00:19:35;;;;;;;23.85;13.13;;;14.00;99.90;;;;;;4070524;29;20168;-88
2022/10/20 00:21:36;;;;;;;25.88;12.68;;;13.80;99.90;;;;;;4086316;29;20199;-88
2022/10/20 00:23:36;;;;;;;28.65;13.73;;;13.80;99.90;;;;;;4086208;29;20196;-96
2022/10/20 00:25:38;;;;;;;23.10;13.55;;;13.90;99.90;;;;;;4086172;29;20244;-94
2022/10/20 00:27:38;;;;;;;24.85;14.43;;;14.00;99.90;;;;;;4070471;29;20724;-95
2022/10/20 00:29:39;;;;;;;25.60;13.30;;;13.90;99.90;;;;;;4086173;29;20184;-89
2022/10/20 00:31:40;;;;;;;30.92;13.75;;;13.90;99.90;;;;;;4070309;29;20196;-89
2022/10/20 00:33:40;;;;;;;29.38;14.68;;;13.90;99.90;;;;;;4070575;29;20188;-95
2022/10/20 00:35:41;;;;;;;26.05;13.52;;;14.00;99.90;;;;;;4086091;29;20325;-95
2022/10/20 00:37:42;;;;;;;28.05;13.50;;;14.00;99.90;;;;;;4085914;29;20214;-89
2022/10/20 00:39:42;;;;;;;21.27;13.77;;;14.00;99.90;;;;;;4070024;29;20264;-95
2022/10/20 00:41:43;;;;;;;29.70;14.13;;;14.00;99.90;;;;;;4070182;29;20295;-94
2022/10/20 00:43:53;;;;;;;24.20;12.38;;;14.00;99.90;;;;;;4086044;29;20180;-88
2022/10/20 00:45:56;;;;;;;24.85;14.40;;;14.00;99.90;;;;;;4070466;29;20172;-88
2022/10/20 00:48:07;;;;;;;27.13;13.35;;;13.90;99.90;;;;;;4070205;29;20299;-95
2022/10/20 00:50:16;;;;;;;29.00;13.80;;;13.70;99.90;;;;;;4070250;29;20187;-92
2022/10/20 00:52:20;;;;;;;28.45;15.32;;;13.60;99.90;;;;;;4070145;29;20263;-88
2022/10/20 00:54:25;;;;;;;28.00;15.05;;;13.40;99.90;;;;;;4069939;29;20231;-88
2022/10/20 00:56:26;;;;;;;34.17;16.02;;;13.20;99.90;;;;;;4070126;29;20172;-93
2022/10/20 00:58:28;;;;;;;31.70;15.23;;;13.10;99.90;;;;;;4085717;29;20172;-93
2022/10/20 01:00:29;;;;;;;27.23;14.88;;;13.10;99.90;;;;;;4085758;29;20179;-88
2022/10/20 01:02:30;;;;;;;29.55;15.82;;;13.10;99.90;;;;;;4085812;29;20641;-96
2022/10/20 01:04:32;;;;;;;30.00;14.70;;;13.20;99.90;;;;;;4069948;29;20180;-88
2022/10/20 01:06:33;;;;;;;27.27;15.82;;;13.30;99.90;;;;;;4085452;29;20164;-88
2022/10/20 01:08:33;;;;;;;28.55;15.70;;;13.40;99.90;;;;;;4070001;29;20212;-89
2022/10/20 01:10:42;;;;;;;32.92;15.82;;;13.30;99.90;;;;;;4069851;29;20632;-93
2022/10/20 01:13:03;;;;;;;36.05;15.32;;;13.30;99.90;;;;;;4085265;29;20309;-93
2022/10/20 01:15:10;;;;;;;35.80;15.93;;;13.10;99.90;;;;;;4085481;29;20207;-94
2022/10/20 01:17:32;;;;;;;29.40;16.00;;;13.10;99.90;;;;;;4070132;29;20184;-88
2022/10/20 01:20:05;;;;;;;31.27;16.63;;;13.20;99.90;;;;;;4069859;29;20180;-90
2022/10/20 01:22:39;;;;;;;29.23;15.82;;;13.20;99.90;;;;;;4085270;29;20195;-94
2022/10/20 01:25:15;;;;;;;29.65;16.48;;;13.10;99.90;;;;;;4085359;29;20183;-88
2022/10/20 01:27:50;;;;;;;30.13;16.63;;;13.00;99.90;;;;;;4069952;29;20196;-95
2022/10/20 01:30:09;;;;;;;32.47;15.70;;;13.10;99.90;;;;;;4068666;29;20231;-88
2022/10/20 01:32:19;;;;;;;34.55;16.73;;;13.10;99.90;;;;;;4085618;29;20191;-91
2022/10/20 01:34:49;;;;;;;32.28;15.75;;;13.20;99.90;;;;;;4069605;29;20191;-89
2022/10/20 01:37:09;;;;;;;24.95;15.07;;;13.40;99.90;;;;;;4085288;29;20578;-88
2022/10/20 01:39:16;;;;;;;30.58;15.95;;;13.50;99.90;;;;;;4085279;29;20543;-90
2022/10/20 01:41:42;;;;;;;30.38;15.15;;;13.60;99.90;;;;;;4085133;29;20200;-88
2022/10/20 01:43:45;;;;;;;28.17;14.85;;;13.60;99.90;;;;;;4085058;29;20203;-89
2022/10/20 01:45:48;;;;;;;27.60;15.52;;;13.60;99.90;;;;;;4085107;29;20179;-95
2022/10/20 01:47:50;;;;;;;34.85;16.00;;;13.80;99.90;;;;;;4084776;29;20175;-88
2022/10/20 01:49:52;;;;;;;30.08;16.08;;;13.80;99.90;;;;;;4084769;29;20585;-88
2022/10/20 01:51:54;;;;;;;28.35;15.75;;;13.80;99.90;;;;;;4084618;29;20700;-94
2022/10/20 01:53:55;;;;;;;32.70;15.82;;;13.70;99.90;;;;;;4069056;29;20191;-89
2022/10/20 01:55:58;;;;;;;29.40;16.00;;;13.60;99.90;;;;;;4069062;29;20180;-94
2022/10/20 01:58:36;;;;;;;27.67;15.07;;;13.50;99.90;;;;;;4068980;29;20180;-89
2022/10/20 02:00:38;;;;;;;28.90;16.10;;;13.40;99.90;;;;;;4069053;29;20211;-88
2022/10/20 02:02:51;;;;;;;34.20;16.48;;;13.40;99.90;;;;;;4068975;29;20259;-88
2022/10/20 02:05:20;;;;;;;31.83;16.42;;;13.30;99.90;;;;;;4068831;29;20262;-89
2022/10/20 02:07:28;;;;;;;32.70;15.27;;;13.30;99.90;;;;;;4069042;29;20180;-88
2022/10/20 02:09:47;;;;;;;26.98;15.15;;;13.30;99.90;;;;;;4068854;29;20271;-90
2022/10/20 02:12:14;;;;;;;29.38;15.85;;;13.30;99.90;;;;;;4068994;29;20199;-96
2022/10/20 02:14:17;;;;;;;29.73;15.45;;;13.50;99.90;;;;;;4068973;29;20275;-88
2022/10/20 02:16:32;;;;;;;28.05;15.02;;;13.50;99.90;;;;;;4068845;29;20315;-94
2022/10/20 02:18:40;;;;;;;26.30;15.07;;;13.60;99.90;;;;;;4068697;29;20544;-94
2022/10/20 02:20:43;;;;;;;25.95;15.32;;;13.80;99.90;;;;;;4068613;29;20212;-90
2022/10/20 02:22:45;;;;;;;29.88;15.88;;;13.80;99.90;;;;;;4068910;29;20194;-89
2022/10/20 02:24:46;;;;;;;27.08;15.40;;;13.80;99.90;;;;;;4068833;29;20634;-95
2022/10/20 02:26:48;;;;;;;31.40;16.73;;;13.80;99.90;;;;;;4084287;29;20199;-94
2022/10/20 02:28:54;;;;;;;29.60;16.42;;;13.70;99.90;;;;;;4068480;29;20247;-92
2022/10/20 02:30:56;;;;;;;27.38;15.63;;;13.70;99.90;;;;;;4084498;29;20191;-94
2022/10/20 02:32:58;;;;;;;31.85;16.13;;;13.70;99.90;;;;;;4084390;29;20552;-89
2022/10/20 02:34:59;;;;;;;33.38;16.45;;;13.70;99.90;;;;;;4083830;29;20258;-88
2022/10/20 02:37:00;;;;;;;25.60;15.85;;;13.80;99.90;;;;;;4068620;29;20183;-96
2022/10/20 02:39:00;;;;;;;30.02;15.75;;;13.70;99.90;;;;;;4068364;29;20176;-92
2022/10/20 02:41:01;;;;;;;32.35;16.45;;;13.60;99.90;;;;;;4068477;29;20211;-96
2022/10/20 02:43:02;;;;;;;28.35;15.40;;;13.60;99.90;;;;;;4100037;28;20253;-90
2022/10/20 02:45:03;;;;;;;29.92;14.27;;;13.50;99.90;;;;;;4084185;29;20624;-89
2022/10/20 02:47:04;;;;;;;33.50;16.40;;;13.50;99.90;;;;;;4084502;29;20223;-89
2022/10/20 02:49:04;;;;;;;32.15;16.33;;;13.40;99.90;;;;;;4084472;29;20211;-89
2022/10/20 02:51:05;;;;;;;21.50;13.65;;;13.20;99.90;;;;;;4068605;29;20228;-88
2022/10/20 02:53:06;;;;;;;29.60;13.85;;;13.00;99.90;;;;;;4084374;29;20182;-88
2022/10/20 02:55:07;;;;;;;29.08;14.63;;;13.00;99.90;;;;;;4084402;29;20553;-93
2022/10/20 02:57:07;;;;;;;22.67;13.32;;;13.20;99.90;;;;;;4068868;29;20176;-88
2022/10/20 02:59:12;;;;;;;22.50;13.45;;;13.20;99.90;;;;;;4068618;29;20263;-88
2022/10/20 03:01:13;;;;;;;20.17;13.30;;;13.30;99.90;;;;;;4068413;29;20208;-89
2022/10/20 03:03:14;;;;;;;27.20;12.63;;;13.30;99.90;;;;;;4084271;29;20258;-90
2022/10/20 03:05:15;;;;;;;22.67;12.10;;;13.60;99.90;;;;;;4068664;29;20298;-89
2022/10/20 03:07:15;;;;;;;20.13;11.63;;;13.90;99.90;;;;;;4068444;29;20243;-89
2022/10/20 03:09:16;;;;;;;22.60;11.98;;;14.00;99.90;;;;;;4068214;29;20626;-91
2022/10/20 03:11:17;;;;;;;20.65;12.40;;;14.40;99.90;;;;;;4068204;29;20279;-88
2022/10/20 03:13:17;;;;;;;21.33;12.35;;;14.80;99.90;;;;;;4068095;29;20181;-88
2022/10/20 03:15:18;;;;;;;20.38;12.82;;;15.00;99.90;;;;;;4068576;29;20648;-90
2022/10/20 03:17:19;;;;;;;28.27;12.88;;;14.90;99.90;;;;;;4084127;29;20179;-89
2022/10/20 03:19:20;;;;;;;23.33;13.65;;;14.90;99.90;;;;;;4083886;28;20215;-88
2022/10/20 03:21:20;;;;;;;25.00;12.88;;;15.00;99.90;;;;;;4068204;29;20284;-89
2022/10/20 03:23:21;;;;;;;24.27;13.07;;;14.90;99.90;;;;;;4068461;29;20550;-94
2022/10/20 03:25:22;;;;;;;21.27;12.02;;;14.40;99.90;;;;;;4068323;29;20586;-89
2022/10/20 03:27:25;;;;;;;21.20;11.40;;;14.10;99.90;;;;;;4083697;29;20201;-89
2022/10/20 03:29:26;;;;;;;25.10;12.25;;;13.80;99.90;;;;;;4068019;29;20241;-89
2022/10/20 03:31:27;;;;;;;32.65;11.63;;;13.90;99.90;;;;;;4068079;29;20247;-91
2022/10/20 03:33:27;;;;;;;17.63;10.95;;;14.30;99.90;;;;;;4068081;29;20185;-91
2022/10/20 03:35:28;;;;;;;19.25;11.15;;;14.20;99.90;;;;;;4068376;29;20173;-91
2022/10/20 03:37:29;;;;;;;22.73;11.23;;;13.80;99.90;;;;;;4068077;29;20184;-89
2022/10/20 03:39:29;;;;;;;20.17;10.73;;;13.60;99.90;;;;;;4068064;29;20184;-89
2022/10/20 03:41:30;;;;;;;16.27;10.05;;;13.60;99.90;;;;;;4068230;29;20201;-89
2022/10/20 03:43:31;;;;;;;15.05;9.45;;;13.60;99.90;;;;;;4083709;29;20175;-89
2022/10/20 03:45:31;;;;;;;20.35;9.77;;;13.50;99.90;;;;;;4068148;29;20208;-90
2022/10/20 03:47:32;;;;;;;22.63;10.25;;;13.50;99.90;;;;;;4070851;29;20183;-88
2022/10/20 03:49:33;;;;;;;16.30;10.05;;;13.40;99.90;;;;;;4071040;29;20325;-89
2022/10/20 03:51:34;;;;;;;16.10;9.77;;;13.30;99.90;;;;;;4086700;29;20191;-89
2022/10/20 03:53:34;;;;;;;14.00;9.63;;;13.30;99.90;;;;;;4071061;29;20220;-89
2022/10/20 03:55:36;;;;;;;16.25;10.02;;;13.50;99.90;;;;;;4086704;29;20180;-94
2022/10/20 03:57:37;;;;;;;17.27;9.90;;;14.00;99.90;;;;;;4086877;29;20196;-90
2022/10/20 03:59:38;;;;;;;14.30;9.95;;;14.50;99.90;;;;;;4071352;29;20277;-91
2022/10/20 04:01:42;;;;;;;21.50;10.95;;;14.60;99.90;;;;;;4070875;29;20324;-90
2022/10/20 04:03:43;;;;;;;19.60;10.57;;;14.60;99.90;;;;;;4086477;29;20175;-89
2022/10/20 04:05:44;;;;;;;22.58;10.43;;;14.20;99.90;;;;;;4070995;29;20172;-89
2022/10/20 04:07:45;;;;;;;21.70;10.20;;;13.70;99.90;;;;;;4070660;29;20211;-88
2022/10/20 04:09:46;;;;;;;15.77;10.23;;;13.60;99.90;;;;;;4070888;29;20188;-89
2022/10/20 04:11:47;;;;;;;19.38;10.93;;;14.10;99.90;;;;;;4070798;29;20707;-88
2022/10/20 04:13:47;;;;;;;23.08;11.25;;;14.30;99.90;;;;;;4086241;29;20190;-93
2022/10/20 04:15:48;;;;;;;17.88;10.95;;;14.00;99.90;;;;;;4070656;29;20231;-89
2022/10/20 04:17:49;;;;;;;17.27;10.18;;;14.10;99.90;;;;;;4086264;29;20274;-89
2022/10/20 04:19:50;;;;;;;16.92;10.70;;;14.20;99.90;;;;;;4070731;29;20637;-88
2022/10/20 04:21:50;;;;;;;21.75;10.80;;;13.90;99.90;;;;;;4070350;29;20215;-95
2022/10/20 04:23:51;;;;;;;16.40;10.73;;;13.90;99.90;;;;;;4086022;29;20218;-89
2022/10/20 04:25:52;;;;;;;20.00;10.10;;;13.50;99.90;;;;;;4087459;23;20190;-93
2022/10/20 04:27:52;;;;;;;17.70;10.02;;;13.90;99.90;;;;;;4085189;29;20188;-94
2022/10/20 04:29:53;;;;;;;16.27;10.32;;;13.90;99.90;;;;;;4086244;29;20223;-91
2022/10/20 04:31:54;;;;;;;21.38;10.60;;;13.80;99.90;;;;;;4085872;29;20195;-91
2022/10/20 04:33:55;;;;;;;21.27;10.63;;;13.70;99.90;;;;;;4101977;28;20182;-93
2022/10/20 04:36:03;;;;;;;23.65;10.93;;;13.60;99.90;;;;;;4101967;28;20175;-92
2022/10/20 04:38:03;;;;;;;20.05;10.68;;;13.80;99.90;;;;;;4085678;29;20198;-92
2022/10/20 04:40:05;;;;;;;20.58;10.32;;;13.70;99.90;;;;;;4101905;28;20183;-93
2022/10/20 04:42:06;;;;;;;16.33;10.40;;;13.40;99.90;;;;;;4086081;29;20282;-92
2022/10/20 04:44:07;;;;;;;18.98;10.55;;;13.20;99.90;;;;;;4101859;28;20178;-94
2022/10/20 04:46:09;;;;;;;14.52;9.18;;;13.30;99.90;;;;;;4085983;29;20175;-92
2022/10/20 04:48:09;;;;;;;14.77;9.82;;;13.20;99.90;;;;;;4085635;28;20301;-92
2022/10/20 04:50:10;;;;;;;14.35;9.50;;;13.10;99.90;;;;;;4085656;29;20182;-92
2022/10/20 04:52:11;;;;;;;17.63;10.00;;;13.00;99.90;;;;;;4101489;28;20198;-94
2022/10/20 04:54:12;;;;;;;15.70;9.38;;;13.10;99.90;;;;;;4101527;28;20183;-92
2022/10/20 04:56:18;;;;;;;18.77;9.88;;;13.00;99.90;;;;;;4085522;29;20198;-93
2022/10/20 04:58:18;;;;;;;13.68;9.73;;;13.00;99.90;;;;;;4101100;28;20623;-93
2022/10/20 05:00:19;;;;;;;13.60;9.40;;;13.00;99.90;;;;;;4101454;28;20171;-92
2022/10/20 05:02:20;;;;;;;13.70;9.35;;;13.00;99.90;;;;;;4085604;29;20175;-93
2022/10/20 05:04:21;;;;;;;19.75;9.82;;;13.00;99.90;;;;;;4101445;28;20189;-93
2022/10/20 05:06:24;;;;;;;18.23;9.60;;;13.10;99.90;;;;;;4085483;29;20176;-93
2022/10/20 05:08:25;;;;;;;14.15;9.10;;;13.30;99.90;;;;;;4085654;28;20243;-93
2022/10/20 05:10:26;;;;;;;19.67;8.95;;;13.40;99.90;;;;;;4101421;28;20186;-93
2022/10/20 05:12:27;;;;;;;18.27;9.73;;;13.50;99.90;;;;;;4085606;29;20210;-93
2022/10/20 05:14:28;;;;;;;17.95;9.73;;;13.60;99.90;;;;;;4085357;29;20187;-93
2022/10/20 05:16:28;;;;;;;15.80;9.75;;;13.70;99.90;;;;;;4101047;28;20644;-92
2022/10/20 05:18:29;;;;;;;18.08;10.23;;;13.70;99.90;;;;;;4085415;29;20184;-92
2022/10/20 05:20:30;;;;;;;16.05;8.80;;;13.80;99.90;;;;;;4101172;28;20198;-91
2022/10/20 05:22:31;;;;;;;18.48;9.73;;;13.80;99.90;;;;;;4101197;28;20175;-93
2022/10/20 05:24:32;;;;;;;18.20;8.57;;;13.70;99.90;;;;;;4085242;29;20176;-93
2022/10/20 05:26:35;;;;;;;13.95;8.30;;;13.60;99.90;;;;;;4101124;28;20611;-94
2022/10/20 05:28:36;;;;;;;19.02;8.93;;;13.60;99.90;;;;;;4085205;28;20715;-94
2022/10/20 05:30:38;;;;;;;13.82;8.75;;;13.50;99.90;;;;;;4100954;28;20230;-93
2022/10/20 05:32:38;;;;;;;14.18;8.60;;;13.50;99.90;;;;;;4085348;28;20179;-93
2022/10/20 05:34:39;;;;;;;17.02;8.70;;;13.50;99.90;;;;;;4101082;28;20273;-94
2022/10/20 05:36:40;;;;;;;12.23;8.68;;;13.50;99.90;;;;;;4085164;29;20176;-93
2022/10/20 05:38:41;;;;;;;14.18;8.88;;;13.60;99.90;;;;;;4085182;29;20168;-94
2022/10/20 05:40:41;;;;;;;16.95;8.43;;;13.80;99.90;;;;;;4085286;29;20195;-93
2022/10/20 05:42:42;;;;;;;17.42;8.68;;;13.80;99.90;;;;;;4084855;29;20540;-93
2022/10/20 05:44:43;;;;;;;13.88;8.77;;;13.80;99.90;;;;;;4101196;28;20178;-94
2022/10/20 05:46:44;;;;;;;14.93;8.50;;;13.80;99.90;;;;;;4085157;28;20274;-92
2022/10/20 05:48:46;;;;;;;20.65;8.38;;;13.80;99.90;;;;;;4084968;28;20747;-93
2022/10/20 05:50:46;;;;;;;16.00;8.00;;;13.90;99.90;;;;;;4084945;29;20199;-93
2022/10/20 05:52:47;;;;;;;12.85;8.20;;;13.90;99.90;;;;;;4084793;29;20215;-93
2022/10/20 05:54:48;;;;;;;17.70;7.78;;;13.90;99.90;;;;;;4084931;29;20180;-94
2022/10/20 05:56:48;;;;;;;12.63;8.48;;;13.90;99.90;;;;;;4100561;28;20201;-93
2022/10/20 05:58:49;;;;;;;11.93;8.02;;;13.90;99.90;;;;;;4084815;29;20176;-93
2022/10/20 06:00:52;;;;;;;17.95;8.57;;;13.90;99.90;;;;;;4100663;28;20222;-91
2022/10/20 06:02:53;;;;;;;15.95;7.97;;;14.00;99.90;;;;;;4100740;28;20179;-94
2022/10/20 06:04:54;;;;;;;15.93;7.85;;;14.00;99.90;;;;;;4100718;28;20221;-94
2022/10/20 06:06:55;;;;;;;13.75;8.27;;;14.00;99.90;;;;;;4100775;28;20322;-94
2022/10/20 06:08:58;;;;;;;12.18;8.70;;;14.20;99.90;;;;;;4100233;28;20218;-93
2022/10/20 06:11:07;;;;;;;17.77;8.75;;;14.20;99.90;;;;;;4084715;29;20191;-93
2022/10/20 06:13:09;;;;;;;15.57;8.38;;;14.30;99.90;;;;;;4085282;28;20195;-93
2022/10/20 06:15:09;;;;;;;15.60;8.25;;;14.30;99.90;;;;;;4084734;29;20185;-93
2022/10/20 06:17:10;;;;;;;10.98;8.05;;;14.30;99.90;;;;;;4100376;28;20184;-92
2022/10/20 06:19:11;;;;;;;15.00;8.13;;;14.40;99.90;;;;;;4084572;29;20176;-94
2022/10/20 06:21:14;;;;;;;20.05;8.43;;;14.50;99.90;;;;;;4084495;29;20200;-93
2022/10/20 06:23:15;;;;;;;15.80;7.57;;;14.70;99.90;;;;;;4084408;28;20214;-92
2022/10/20 06:25:16;;;;;;;11.90;7.65;;;14.60;99.90;;;;;;4100353;28;20182;-95
2022/10/20 06:27:16;;;;;;;14.02;7.78;;;14.60;99.90;;;;;;4084536;29;20647;-93
2022/10/20 06:29:17;;;;;;;13.38;7.88;;;14.70;99.90;;;;;;4100111;28;20348;-94
2022/10/20 06:31:30;;;;;;;15.93;7.20;;;14.70;99.90;;;;;;4084521;29;20188;-93
2022/10/20 06:33:31;;;;;;;12.75;7.85;;;14.70;99.90;;;;;;4084251;28;20641;-94
2022/10/20 06:35:31;;;;;;;19.67;7.60;;;14.80;99.90;;;;;;4084396;29;20175;-93
2022/10/20 06:37:32;;;;;;;10.90;7.45;;;14.80;99.90;;;;;;4084170;29;20180;-93
2022/10/20 06:39:33;;;;;;;15.77;7.47;;;14.90;99.90;;;;;;4084258;29;20640;-93
2022/10/20 06:41:34;;;;;;;13.25;8.00;;;14.90;99.90;;;;;;4099998;28;20199;-93
2022/10/20 06:43:35;;;;;;;16.63;7.60;;;15.00;99.90;;;;;;4084278;29;20234;-93
2022/10/20 06:45:36;;;;;;;18.17;8.05;;;15.00;99.90;;;;;;4084287;29;20179;-93
2022/10/20 06:47:37;;;;;;;17.52;7.88;;;15.00;99.90;;;;;;4100047;28;20185;-93
2022/10/20 06:49:37;;;;;;;14.80;7.35;;;15.20;99.90;;;;;;4084304;29;20218;-94
2022/10/20 06:51:38;;;;;;;15.13;7.53;;;15.30;99.90;;;;;;4084182;29;20223;-93
2022/10/20 06:53:40;;;;;;;14.13;7.22;;;15.40;99.90;;;;;;4084246;29;20270;-92
2022/10/20 06:55:41;;;;;;;14.00;7.50;;;15.40;99.90;;;;;;4084134;28;20164;-93
2022/10/20 06:57:41;;;;;;;14.57;7.53;;;15.40;99.90;;;;;;4099837;28;20350;-93
2022/10/20 06:59:42;;;;;;;17.15;7.57;;;15.50;99.90;;;;;;4084224;29;20688;-93
2022/10/20 07:01:43;;;;;;;16.60;7.95;;;15.50;99.90;;;;;;4099829;28;20190;-94
2022/10/20 07:03:45;;;;;;;12.55;7.32;;;15.50;99.90;;;;;;4084396;29;20570;-94
2022/10/20 07:05:47;;;;;;;17.73;7.65;;;15.50;99.90;;;;;;4084339;28;20179;-93
2022/10/20 07:07:52;;;;;;;13.00;7.47;;;15.50;99.90;;;;;;4084537;28;20637;-93
2022/10/20 07:09:55;;;;;;;18.75;7.05;;;15.30;99.90;;;;;;4100255;28;20355;-94
2022/10/20 07:11:56;;;;;;;13.73;7.18;;;15.40;99.90;;;;;;4084048;29;20279;-95
2022/10/20 07:14:20;;;;;;;14.18;6.45;;;15.40;99.90;;;;;;4083888;28;20202;-95
2022/10/20 07:16:29;;;;;;;20.80;7.60;;;15.50;99.90;;;;;;4084220;28;20195;-94
2022/10/20 07:18:41;;;;;;;13.82;7.18;;;15.50;99.90;;;;;;4084046;28;20630;-95
2022/10/20 07:20:47;;;;;;;16.67;7.18;;;15.50;99.90;;;;;;4087184;28;20180;-95
2022/10/20 07:23:38;;;;;;;;;;;;;;;;;;;;;
2022/10/20 07:27:14;;;;;;;;;;;;;;;;;;;;;
2022/10/20 07:41:28;;;;;;;;;;;;;;;;;;;;;
2022/10/20 08:32:18;;;;;;;15.82;7.97;;;16.20;99.90;;;;;;4328733;23;20242;-96
2022/10/20 08:38:10;;;;;;;;;;;;;;;;;;;;;
2022/10/20 08:41:38;;;;;;;;;;;;;;;;;;;;;
2022/10/20 09:00:23;;;;;;;17.23;8.88;;;16.70;99.90;;;;;;4307360;23;20238;-95
2022/10/20 09:02:34;;;;;;;15.60;8.88;;;16.70;99.90;;;;;;4072633;29;20638;-96
2022/10/20 09:05:07;;;;;;;17.50;8.98;;;16.60;99.90;;;;;;4089325;29;20180;-96
2022/10/20 09:07:50;;;;;;;21.13;9.38;;;16.50;99.90;;;;;;4073018;29;20234;-95
2022/10/20 09:10:36;;;;;;;13.50;8.02;;;16.60;99.90;;;;;;4090697;29;20187;-96
2022/10/20 09:12:49;;;;;;;21.02;8.30;;;16.60;99.90;;;;;;4076804;28;20180;-96
2022/10/20 09:17:15;;;;;;;18.27;8.50;;;16.90;99.90;;;;;;4111691;29;20753;-96
2022/10/20 09:19:21;;;;;;;15.02;8.07;;;17.10;99.90;;;;;;4091227;29;20224;-93
2022/10/20 09:21:22;;;;;;;15.73;8.10;;;17.00;99.90;;;;;;4096117;29;20206;-96
2022/10/20 09:23:39;;;;;;;17.13;8.85;;;17.10;99.90;;;;;;4076556;29;20177;-95
2022/10/20 09:25:41;;;;;;;20.98;9.30;;;17.20;99.90;;;;;;4085029;28;20176;-94
2022/10/20 09:27:48;;;;;;;20.00;8.75;;;17.20;99.90;;;;;;4094343;28;20206;-93
2022/10/20 09:29:49;;;;;;;28.95;9.30;;;17.40;99.90;;;;;;4110078;28;20313;-96
2022/10/20 09:31:59;;;;;;;18.63;9.35;;;17.50;99.90;;;;;;4104025;29;20663;-96
2022/10/20 09:34:02;;;;;;;21.23;9.18;;;17.50;99.90;;;;;;4076051;29;20192;-93
2022/10/20 09:36:11;;;;;;;20.38;9.18;;;17.70;99.90;;;;;;4088712;29;20660;-92
2022/10/20 09:38:21;;;;;;;20.08;9.60;;;17.90;99.90;;;;;;4085688;29;20214;-96
2022/10/20 09:40:23;;;;;;;27.23;9.80;;;17.80;99.90;;;;;;4088522;29;20179;-92
2022/10/20 09:42:39;;;;;;;18.88;8.68;;;17.90;99.90;;;;;;4088663;28;20640;-94
2022/10/20 09:45:17;;;;;;;15.35;8.55;;;17.90;99.90;;;;;;4088299;29;20246;-94
2022/10/20 09:47:21;;;;;;;21.27;8.93;;;18.20;99.90;;;;;;4085115;29;20175;-94
2022/10/20 09:49:34;;;;;;;15.10;7.78;;;18.10;99.90;;;;;;4086361;29;20211;-95
2022/10/20 09:51:36;;;;;;;19.13;7.90;;;18.10;99.90;;;;;;4088942;29;20196;-96
2022/10/20 09:53:46;;;;;;;23.10;7.82;;;18.30;99.90;;;;;;4085521;29;20240;-95
2022/10/20 09:55:49;;;;;;;16.90;7.93;;;18.40;99.90;;;;;;4086471;29;20722;-93
2022/10/20 09:57:51;;;;;;;20.40;8.32;;;18.30;99.90;;;;;;4101035;29;20171;-95
2022/10/20 09:59:53;;;;;;;18.15;7.85;;;18.10;99.90;;;;;;4085047;29;20255;-94
2022/10/20 10:02:01;;;;;;;17.02;7.88;;;18.00;99.90;;;;;;4069626;29;20244;-95
2022/10/20 10:04:22;;;;;;;15.60;7.20;;;18.00;99.90;;;;;;4085142;29;20595;-95
2022/10/20 10:06:25;;;;;;;19.98;7.72;;;18.20;99.90;;;;;;4069522;29;20618;-95
2022/10/20 10:08:41;;;;;;;14.18;7.15;;;18.40;99.90;;;;;;4071255;29;20215;-94
2022/10/20 10:10:44;;;;;;;15.95;7.93;;;18.40;99.90;;;;;;4085842;29;20274;-94
2022/10/20 10:12:55;;;;;;;18.17;7.63;;;18.50;99.90;;;;;;4070642;29;20271;-95
2022/10/20 10:15:01;;;;;;;19.77;7.45;;;18.50;99.90;;;;;;4072577;29;20184;-96
2022/10/20 10:17:03;;;;;;;16.80;7.75;;;18.40;99.90;;;;;;4085849;29;20234;-95
2022/10/20 10:19:07;;;;;;;17.50;7.30;;;18.50;99.90;;;;;;4085837;29;20175;-93
2022/10/20 10:21:12;;;;;;;16.98;8.02;;;18.60;99.90;;;;;;4105378;28;20241;-95
2022/10/20 10:23:35;;;;;;;22.73;8.48;;;18.50;99.90;;;;;;4092909;29;20187;-96
2022/10/20 10:25:38;;;;;;;15.80;7.38;;;18.50;99.90;;;;;;4089838;28;20180;-93
2022/10/20 10:27:57;;;;;;;15.82;7.40;;;18.50;99.90;;;;;;4071474;29;20184;-93
2022/10/20 10:30:28;;;;;;;17.95;7.75;;;18.50;99.90;;;;;;4093873;28;20191;-95
2022/10/20 10:32:42;;;;;;;13.90;6.85;;;18.60;99.90;;;;;;4095965;29;20187;-95
2022/10/20 10:35:23;;;;;;;13.73;6.72;;;18.50;99.90;;;;;;4096007;28;20179;-94
2022/10/20 10:37:46;;;;;;;19.10;7.03;;;18.60;99.90;;;;;;4097568;29;20239;-94
2022/10/20 10:39:47;;;;;;;17.23;7.30;;;18.50;99.90;;;;;;4083251;28;20193;-93
2022/10/20 10:42:20;;;;;;;13.93;7.03;;;18.50;99.90;;;;;;4100269;28;20191;-95
2022/10/20 10:44:27;;;;;;;19.45;7.25;;;18.40;99.90;;;;;;4096528;28;20202;-94
2022/10/20 10:46:36;;;;;;;18.15;7.15;;;18.50;99.90;;;;;;4099162;28;20167;-94
2022/10/20 10:48:53;;;;;;;14.05;6.72;;;18.40;99.90;;;;;;4080793;28;20296;-95
2022/10/20 10:51:04;;;;;;;17.73;6.25;;;18.30;99.90;;;;;;4080186;28;20275;-96
2022/10/20 10:53:33;;;;;;;14.40;6.22;;;18.20;99.90;;;;;;4092522;29;20270;-96
2022/10/20 10:55:49;;;;;;;17.23;6.03;;;18.30;99.90;;;;;;4084635;29;20188;-92
2022/10/20 10:58:13;;;;;;;17.05;5.68;;;18.40;99.90;;;;;;4098847;29;20536;-94
2022/10/20 11:00:46;;;;;;;12.00;5.57;;;18.30;99.90;;;;;;4084330;29;20251;-96
2022/10/20 11:03:21;;;;;;;12.57;4.65;;;18.50;99.90;;;;;;4096423;29;20191;-93
2022/10/20 11:05:50;;;;;;;14.98;5.18;;;18.40;99.90;;;;;;4096905;29;20224;-95
2022/10/20 11:08:11;;;;;;;11.77;4.18;;;18.50;99.90;;;;;;4105127;28;20277;-95
2022/10/20 11:10:32;;;;;;;17.00;4.40;;;18.70;99.90;;;;;;4101291;28;20284;-94
2022/10/20 11:13:07;;;;;;;11.05;3.95;;;18.80;99.90;;;;;;4099566;29;20175;-94
2022/10/20 11:15:15;;;;;;;12.02;4.45;;;19.30;99.90;;;;;;4078750;29;20179;-93
2022/10/20 11:17:24;;;;;;;13.73;3.92;;;19.50;99.90;;;;;;4099882;28;20675;-93
2022/10/20 11:19:55;;;;;;;11.88;3.72;;;19.40;99.90;;;;;;4100824;29;20241;-92
2022/10/20 11:22:11;;;;;;;14.02;4.38;;;19.70;99.90;;;;;;4080562;29;20200;-94
2022/10/20 11:24:48;;;;;;;10.40;3.95;;;19.80;99.90;;;;;;4081134;29;20208;-95
2022/10/20 11:27:16;;;;;;;14.25;4.10;;;20.20;99.90;;;;;;4094445;29;20171;-94
2022/10/20 11:29:28;;;;;;;8.57;3.90;;;20.10;99.90;;;;;;4102386;29;20215;-92
2022/10/20 11:31:35;;;;;;;12.93;3.47;;;20.20;99.90;;;;;;4096785;29;20187;-94
2022/10/20 11:33:43;;;;;;;11.07;3.92;;;20.00;99.90;;;;;;4081662;29;20564;-93
2022/10/20 11:36:09;;;;;;;10.30;3.92;;;20.20;99.90;;;;;;4090543;29;20734;-94
2022/10/20 11:38:35;;;;;;;11.00;4.05;;;20.30;99.90;;;;;;4090997;29;20227;-93
2022/10/20 11:40:39;;;;;;;10.52;3.60;;;20.40;99.90;;;;;;4078471;29;20176;-96
2022/10/20 11:42:51;;;;;;;11.32;3.65;;;20.30;99.90;;;;;;4089802;29;20223;-95
2022/10/20 11:44:54;;;;;;;16.85;4.05;;;20.20;99.90;;;;;;4091545;29;20210;-93
2022/10/20 11:47:05;;;;;;;14.85;3.75;;;20.00;99.90;;;;;;4089264;29;20194;-94
2022/10/20 11:49:10;;;;;;;12.18;3.45;;;19.90;99.90;;;;;;4074151;29;20219;-96
2022/10/20 11:51:20;;;;;;;13.27;3.78;;;19.80;99.90;;;;;;4090465;29;20195;-93
2022/10/20 11:53:40;;;;;;;12.23;3.13;;;19.90;99.90;;;;;;4089530;29;20648;-96
2022/10/20 11:56:02;;;;;;;14.75;3.20;;;20.00;99.90;;;;;;4090848;29;20172;-93
2022/10/20 11:58:24;;;;;;;13.50;3.30;;;20.00;99.90;;;;;;4089739;29;20270;-94
2022/10/20 12:01:00;;;;;;;13.13;3.42;;;20.10;99.90;;;;;;4089119;29;20175;-94
2022/10/20 12:03:38;;;;;;;12.02;3.60;;;20.20;99.90;;;;;;4089971;29;20197;-94
2022/10/20 12:05:50;;;;;;;8.50;2.92;;;20.20;99.90;;;;;;4092113;29;20189;-92
2022/10/20 12:08:05;;;;;;;14.57;3.40;;;20.10;99.90;;;;;;4086273;29;20175;-96
2022/10/20 12:10:09;;;;;;;12.27;2.72;;;20.30;99.90;;;;;;4090343;29;20223;-94
2022/10/20 12:12:14;;;;;;;7.85;2.78;;;20.30;99.90;;;;;;4088222;29;20229;-96
2022/10/20 12:14:15;;;;;;;18.92;2.70;;;20.20;99.90;;;;;;4087654;29;20215;-94
2022/10/20 12:16:53;;;;;;;14.00;2.90;;;20.00;99.90;;;;;;4086309;29;20201;-95
2022/10/20 12:19:16;;;;;;;5.82;2.38;;;20.20;99.90;;;;;;4086527;29;20210;-94
2022/10/20 12:21:56;;;;;;;5.30;2.53;;;20.30;99.90;;;;;;4104085;28;20338;-94